11CO weather

CLOSED Channel 7 Heliport
Denver, Colorado, United States

Public forecast

Using degrees Fahrenheit for public forecast. Weather courtesy of forecast.io.

METAR (pilot weather report)

Closest report is Buckley Air Force Base, 10.8 nm (20.0 km) E. Retrieved 2019/04/23 20:58 UTC (45 minutes ago):

KBKF 232058Z 02004KT 10SM FEW070 FEW250 17/02 A3005 RMK AO2A SLP137 T01740018 57023

TAF (pilot weather forecast)

Closest forecast is Buckley Air Force Base, 10.8 nm (20.0 km) E. Retrieved 2019/04/23 17:06 UTC (5 hours ago):

TAF KBKF 231702Z 2317/2423 VRB06KT 9999 FEW010 BKN025 QNH3011INS TEMPO 2317/2319 SCT025 BECMG 2321/2322 01009KT 9999 FEW020 SCT050 QNH3004INS BECMG 2405/2406 22009KT 9999 SCT100 QNH3000INS BECMG 2415/2416 31009KT 9999 FEW250 QNH3004INS TX19/2322Z TN05/2412Z